createdAt,value
2022-12-31T00:00:08.928Z,100784.44
2022-12-31T00:02:36.283Z,100777.88
2022-12-31T00:05:04.542Z,100790.25
2022-12-31T00:09:57.583Z,100793.72
2022-12-31T00:12:24.847Z,100792.63
2022-12-31T00:14:51.544Z,100793.84
2022-12-31T00:17:18.176Z,100792.72
2022-12-31T00:19:44.941Z,100792.63
2022-12-31T00:22:11.592Z,100787.63
2022-12-31T00:24:38.248Z,100788.81
2022-12-31T00:27:04.910Z,100798.41
2022-12-31T00:29:31.624Z,100806.75
2022-12-31T00:31:58.298Z,100801.59
2022-12-31T00:34:25.063Z,100808.09
2022-12-31T00:36:53.531Z,100814.63
2022-12-31T00:39:20.202Z,100811.44
2022-12-31T00:41:46.896Z,100792.75
2022-12-31T00:44:14.007Z,100819.34
2022-12-31T00:49:07.325Z,100828.22
2022-12-31T00:51:35.558Z,100827.81
2022-12-31T00:54:02.312Z,100827.13
2022-12-31T00:56:31.092Z,100824.63
2022-12-31T00:58:59.161Z,100830.56
2022-12-31T01:01:35.964Z,100803.69
2022-12-31T01:04:09.409Z,100822.41
2022-12-31T01:06:36.929Z,100825.88
2022-12-31T01:09:04.561Z,100823.91
2022-12-31T01:11:31.665Z,100826.69
2022-12-31T01:14:02.779Z,100823.78
2022-12-31T01:16:36.625Z,100814.63
2022-12-31T01:19:06.523Z,100822.25
2022-12-31T01:21:34.859Z,100822.53
2022-12-31T01:24:01.629Z,100824.34
2022-12-31T01:26:29.033Z,100807.28
2022-12-31T01:28:55.927Z,100820.84
2022-12-31T01:31:24.315Z,100821.41
2022-12-31T01:33:52.362Z,100818.09
2022-12-31T01:36:26.006Z,100821.53
2022-12-31T01:38:54.292Z,100809.88
2022-12-31T01:41:24.474Z,100816.41
2022-12-31T01:43:55.945Z,100813.63
2022-12-31T01:46:42.767Z,100821.63
2022-12-31T01:49:21.339Z,100827.31
2022-12-31T01:52:12.689Z,100831.78
2022-12-31T01:54:55.009Z,100835.25
2022-12-31T01:57:24.039Z,100837.09
2022-12-31T01:59:52.319Z,100835.59
2022-12-31T02:02:19.149Z,100839.84
2022-12-31T02:04:47.612Z,100847.41
2022-12-31T02:07:14.538Z,100850.53
2022-12-31T02:09:42.733Z,100845.00
2022-12-31T02:12:10.656Z,100846.00
2022-12-31T02:14:43.806Z,100840.03
2022-12-31T02:17:29.461Z,100841.81
2022-12-31T02:20:15.109Z,100840.00
2022-12-31T02:23:06.131Z,100833.72
2022-12-31T02:25:44.903Z,100835.59
2022-12-31T02:28:38.882Z,100841.34
2022-12-31T02:31:43.373Z,100840.25
2022-12-31T02:34:18.842Z,100839.69
2022-12-31T02:36:47.897Z,100848.47
2022-12-31T02:39:15.044Z,100842.69
2022-12-31T02:41:50.482Z,100841.09
2022-12-31T02:44:25.131Z,100838.72
2022-12-31T02:47:14.859Z,100847.59
2022-12-31T02:49:55.977Z,100840.00
2022-12-31T02:52:41.132Z,100850.47
2022-12-31T02:55:35.376Z,100856.00
2022-12-31T02:58:10.713Z,100855.88
2022-12-31T03:01:03.884Z,100853.00
2022-12-31T03:03:31.818Z,100843.19
2022-12-31T03:06:02.138Z,100854.38
2022-12-31T03:08:28.827Z,100851.16
2022-12-31T03:10:57.031Z,100841.72
2022-12-31T03:13:24.630Z,100851.19
2022-12-31T03:15:51.482Z,100861.53
2022-12-31T03:18:39.590Z,100851.06
2022-12-31T03:21:31.674Z,100870.03
2022-12-31T03:24:16.892Z,100872.09
2022-12-31T03:26:43.600Z,100870.19
2022-12-31T03:29:10.210Z,100870.66
2022-12-31T03:31:37.534Z,100878.16
2022-12-31T03:34:04.252Z,100878.63
2022-12-31T03:36:30.923Z,100884.00
2022-12-31T03:38:57.944Z,100876.13
2022-12-31T03:41:24.608Z,100884.50
2022-12-31T03:43:51.329Z,100888.66
2022-12-31T03:46:18.160Z,100892.13
2022-12-31T03:48:44.933Z,100887.34
2022-12-31T03:51:11.603Z,100885.59
2022-12-31T03:53:38.273Z,100885.69
2022-12-31T03:56:05.162Z,100882.56
2022-12-31T03:58:31.787Z,100885.69
2022-12-31T04:00:58.537Z,100887.69
2022-12-31T04:03:25.322Z,100891.94
2022-12-31T04:05:56.081Z,100895.69
2022-12-31T04:08:23.945Z,100897.47
2022-12-31T04:10:50.717Z,100902.47
2022-12-31T04:13:17.384Z,100912.75
2022-12-31T04:15:44.131Z,100906.41
2022-12-31T04:18:10.899Z,100914.63
2022-12-31T04:20:37.504Z,100919.59
2022-12-31T04:23:04.265Z,100923.28
2022-12-31T04:25:31.021Z,100924.38
2022-12-31T04:27:57.631Z,100920.34
2022-12-31T04:30:24.467Z,100914.59
2022-12-31T04:32:51.173Z,100926.72
2022-12-31T04:35:17.941Z,100927.44
2022-12-31T04:37:44.590Z,100927.94
2022-12-31T04:40:11.558Z,100938.81
2022-12-31T04:42:38.760Z,100949.00
2022-12-31T04:45:06.012Z,100951.63
2022-12-31T04:47:32.668Z,100942.22
2022-12-31T04:49:59.327Z,100945.78
2022-12-31T04:52:26.043Z,100936.88
2022-12-31T04:54:52.672Z,100940.22
2022-12-31T04:57:19.303Z,100945.97
2022-12-31T04:59:45.910Z,100936.13
2022-12-31T05:02:12.678Z,100940.06
2022-12-31T05:04:39.588Z,100939.94
2022-12-31T05:07:06.370Z,100943.50
2022-12-31T05:09:33.114Z,100946.63
2022-12-31T05:11:59.766Z,100949.25
2022-12-31T05:14:26.735Z,100950.06
2022-12-31T05:16:53.624Z,100946.38
2022-12-31T05:19:20.661Z,100954.13
2022-12-31T05:22:07.272Z,100947.72
2022-12-31T05:24:33.924Z,100947.47
2022-12-31T05:27:00.827Z,100953.94
2022-12-31T05:29:27.517Z,100944.31
2022-12-31T05:31:54.151Z,100958.13
2022-12-31T05:34:20.816Z,100947.38
2022-12-31T05:36:47.537Z,100963.16
2022-12-31T05:39:14.190Z,100973.06
2022-12-31T05:41:40.884Z,100972.44
2022-12-31T05:44:07.554Z,100979.91
2022-12-31T05:46:34.194Z,100984.06
2022-12-31T05:49:00.849Z,100986.44
2022-12-31T05:51:27.522Z,100982.38
2022-12-31T05:53:54.139Z,100986.44
2022-12-31T05:56:20.754Z,100983.44
2022-12-31T05:58:47.470Z,100987.19
2022-12-31T06:01:14.151Z,100998.81
2022-12-31T06:03:41.803Z,100995.53
2022-12-31T06:06:08.535Z,100998.81
2022-12-31T06:08:35.212Z,101003.25
2022-12-31T06:11:01.892Z,100997.88
2022-12-31T06:13:28.667Z,101005.28
2022-12-31T06:15:55.394Z,101009.69
2022-12-31T06:18:23.505Z,101018.38
2022-12-31T06:20:50.259Z,101021.94
2022-12-31T06:23:16.973Z,101019.78
2022-12-31T06:25:43.669Z,101022.91
2022-12-31T06:28:14.712Z,101017.53
2022-12-31T06:30:46.403Z,101023.25
2022-12-31T06:33:13.163Z,101028.44
2022-12-31T06:35:39.821Z,101029.00
2022-12-31T06:38:06.417Z,101032.16
2022-12-31T06:40:33.190Z,101044.78
2022-12-31T06:43:00.487Z,101035.38
2022-12-31T06:45:27.623Z,101047.97
2022-12-31T06:47:54.409Z,101045.34
2022-12-31T06:50:21.018Z,101043.38
2022-12-31T06:52:47.605Z,101043.41
2022-12-31T06:55:14.768Z,101044.94
2022-12-31T06:57:41.772Z,101058.06
2022-12-31T07:00:10.687Z,101059.25
2022-12-31T07:02:55.879Z,101054.25
2022-12-31T07:05:46.540Z,101063.34
2022-12-31T07:08:16.052Z,101066.94
2022-12-31T07:11:04.681Z,101064.56
2022-12-31T07:13:40.438Z,101071.00
2022-12-31T07:16:26.258Z,101066.09
2022-12-31T07:19:11.481Z,101072.28
2022-12-31T07:21:40.822Z,101070.75
2022-12-31T07:24:09.764Z,101062.03
2022-12-31T07:27:02.908Z,101081.63
2022-12-31T07:29:51.165Z,101082.34
2022-12-31T07:32:37.626Z,101084.00
2022-12-31T07:35:41.726Z,101084.97
2022-12-31T07:38:21.364Z,101084.97
2022-12-31T07:41:26.723Z,101075.41
2022-12-31T07:44:08.485Z,101076.69
2022-12-31T07:46:58.759Z,101080.03
2022-12-31T07:49:26.747Z,101078.47
2022-12-31T07:51:54.027Z,101087.22
2022-12-31T07:54:21.809Z,101097.84
2022-12-31T07:56:49.740Z,101102.13
2022-12-31T07:59:35.548Z,101101.19
2022-12-31T08:02:08.586Z,101109.88
2022-12-31T08:04:35.215Z,101111.69
2022-12-31T08:07:23.524Z,101121.34
2022-12-31T08:09:58.292Z,101116.69
2022-12-31T08:12:27.859Z,101106.44
2022-12-31T08:14:54.636Z,101122.88
2022-12-31T08:17:21.623Z,101122.06
2022-12-31T08:19:48.720Z,101115.03
2022-12-31T08:22:24.109Z,101131.00
2022-12-31T08:25:23.422Z,101126.72
2022-12-31T08:28:11.003Z,101119.56
2022-12-31T08:31:01.079Z,101116.78
2022-12-31T08:33:42.622Z,101112.72
2022-12-31T08:36:19.912Z,101116.56
2022-12-31T08:39:07.958Z,101115.94
2022-12-31T08:41:42.484Z,101117.34
2022-12-31T08:44:31.362Z,101115.16
2022-12-31T08:47:03.749Z,101110.16
2022-12-31T08:49:34.225Z,101112.34
2022-12-31T08:52:01.781Z,101107.91
2022-12-31T08:54:29.392Z,101100.31
2022-12-31T08:57:17.445Z,101094.25
2022-12-31T08:59:56.683Z,101090.22
2022-12-31T09:02:40.918Z,101092.75
2022-12-31T09:05:34.784Z,101094.81
2022-12-31T09:08:19.912Z,101090.00
2022-12-31T09:10:57.339Z,101092.00
2022-12-31T09:13:26.937Z,101083.38
2022-12-31T09:16:30.831Z,101084.78
2022-12-31T09:18:57.539Z,101085.69
2022-12-31T09:21:24.609Z,101079.63
2022-12-31T09:23:51.515Z,101078.59
2022-12-31T09:26:36.393Z,101078.28
2022-12-31T09:29:42.189Z,101070.59
2022-12-31T09:32:35.034Z,101072.25
2022-12-31T09:35:23.286Z,101067.78
2022-12-31T09:37:55.200Z,101067.47
2022-12-31T09:40:36.768Z,101061.81
2022-12-31T09:43:43.566Z,101063.44
2022-12-31T09:46:25.533Z,101069.47
2022-12-31T09:49:01.206Z,101059.66
2022-12-31T09:51:36.707Z,101059.31
2022-12-31T09:54:06.096Z,101050.28
2022-12-31T09:56:42.678Z,101053.91
2022-12-31T09:59:20.469Z,101042.16
2022-12-31T10:02:11.588Z,101050.69
2022-12-31T10:05:01.712Z,101052.28
2022-12-31T10:07:53.583Z,101039.81
2022-12-31T10:10:54.075Z,101044.84
2022-12-31T10:13:42.169Z,101040.28
2022-12-31T10:16:35.201Z,101038.44
2022-12-31T10:19:17.080Z,101041.56
2022-12-31T10:22:04.586Z,101036.59
2022-12-31T10:24:45.992Z,101031.16
2022-12-31T10:27:18.328Z,101027.88
2022-12-31T10:29:48.162Z,101028.56
2022-12-31T10:32:31.567Z,101027.78
2022-12-31T10:35:13.183Z,101020.84
2022-12-31T10:37:58.445Z,101024.75
2022-12-31T10:40:50.959Z,101021.41
2022-12-31T10:43:47.922Z,101028.34
2022-12-31T10:46:51.931Z,101012.59
2022-12-31T10:49:27.222Z,101017.69
2022-12-31T10:52:22.223Z,101016.88
2022-12-31T10:55:17.772Z,101010.59
2022-12-31T10:58:05.771Z,101005.06
2022-12-31T11:00:45.695Z,100993.13
2022-12-31T11:03:46.606Z,101004.63
2022-12-31T11:06:29.691Z,100991.88
2022-12-31T11:09:07.427Z,100996.88
2022-12-31T11:11:43.423Z,100987.41
2022-12-31T11:14:42.789Z,100976.72
2022-12-31T11:17:15.405Z,100973.97
2022-12-31T11:19:49.165Z,100980.31
2022-12-31T11:22:40.234Z,100973.94
2022-12-31T11:25:13.083Z,100970.13
2022-12-31T11:27:46.089Z,100974.41
2022-12-31T11:30:33.684Z,100976.41
2022-12-31T11:33:14.856Z,100976.13
2022-12-31T11:36:12.385Z,100968.81
2022-12-31T11:38:51.086Z,100971.94
2022-12-31T11:41:43.896Z,100975.63
2022-12-31T11:44:16.577Z,100969.28
2022-12-31T11:47:20.617Z,100962.41
2022-12-31T11:50:01.040Z,100959.59
2022-12-31T11:52:43.693Z,100963.38
2022-12-31T11:55:33.864Z,100963.75
2022-12-31T11:58:28.684Z,100968.31
2022-12-31T12:01:19.961Z,100958.09
2022-12-31T12:03:47.513Z,100959.97
2022-12-31T12:06:18.375Z,100949.72
2022-12-31T12:08:45.731Z,100955.22
2022-12-31T12:11:23.848Z,100946.81
2022-12-31T12:13:50.556Z,100951.75
2022-12-31T12:16:19.712Z,100945.81
2022-12-31T12:18:50.389Z,100946.09
2022-12-31T12:21:22.961Z,100958.63
2022-12-31T12:24:03.126Z,100950.59
2022-12-31T12:26:37.868Z,100955.91
2022-12-31T12:29:11.484Z,100954.53
2022-12-31T12:31:38.799Z,100922.81
2022-12-31T12:34:06.677Z,100960.41
2022-12-31T12:36:34.117Z,100957.00
2022-12-31T12:39:06.116Z,100966.78
2022-12-31T12:41:33.167Z,100967.13
2022-12-31T12:44:08.705Z,100977.34
2022-12-31T12:46:48.703Z,100982.38
2022-12-31T12:49:27.561Z,100966.81
2022-12-31T12:52:10.605Z,100970.47
2022-12-31T12:54:37.247Z,100974.59
2022-12-31T12:57:19.105Z,100978.88
2022-12-31T13:00:10.225Z,100967.59
2022-12-31T13:03:04.836Z,100976.34
2022-12-31T13:06:28.499Z,100973.69
2022-12-31T13:09:03.648Z,100973.19
2022-12-31T13:11:45.849Z,100973.41
2022-12-31T13:14:34.973Z,100972.25
2022-12-31T13:17:23.043Z,100974.06
2022-12-31T13:19:58.540Z,100975.91
2022-12-31T13:22:55.757Z,100974.94
2022-12-31T13:25:34.388Z,100974.09
2022-12-31T13:28:05.766Z,100983.03
2022-12-31T13:30:37.810Z,100987.53
2022-12-31T13:33:22.393Z,100983.56
2022-12-31T13:36:00.006Z,100993.50
2022-12-31T13:38:31.761Z,100991.34
2022-12-31T13:41:04.895Z,100994.97
2022-12-31T13:44:02.620Z,100998.31
2022-12-31T13:46:51.507Z,101004.31
2022-12-31T13:49:27.159Z,100993.84
2022-12-31T13:52:01.667Z,101000.31
2022-12-31T13:54:43.981Z,101007.63
2022-12-31T13:57:32.138Z,101011.59
2022-12-31T14:00:03.502Z,101009.97
2022-12-31T14:02:48.056Z,101011.44
2022-12-31T14:05:24.807Z,101010.09
2022-12-31T14:07:55.095Z,101012.13
2022-12-31T14:10:38.784Z,101010.53
2022-12-31T14:13:32.443Z,101015.22
2022-12-31T14:16:36.904Z,101013.09
2022-12-31T14:19:28.965Z,101016.50
2022-12-31T14:22:12.789Z,101018.31
2022-12-31T14:24:50.688Z,101018.03
2022-12-31T14:27:20.920Z,101026.53
2022-12-31T14:30:05.214Z,101021.56
2022-12-31T14:32:44.005Z,101018.88
2022-12-31T14:36:10.098Z,101021.00
2022-12-31T14:39:23.568Z,101033.47
2022-12-31T14:41:53.239Z,101030.97
2022-12-31T14:44:45.394Z,101030.06
2022-12-31T14:47:30.887Z,101034.31
2022-12-31T14:50:11.426Z,101032.84
2022-12-31T14:52:49.227Z,101037.88
2022-12-31T14:55:45.044Z,101032.88
2022-12-31T14:58:28.840Z,101043.00
2022-12-31T15:01:04.658Z,101027.47
2022-12-31T15:03:31.288Z,101042.94
2022-12-31T15:06:11.175Z,101044.06
2022-12-31T15:08:56.379Z,101046.75
2022-12-31T15:11:46.295Z,101048.00
2022-12-31T15:14:47.247Z,101045.09
2022-12-31T15:18:07.846Z,101044.47
2022-12-31T15:21:11.873Z,101047.38
2022-12-31T15:23:42.359Z,101053.13
2022-12-31T15:26:23.462Z,101041.75
2022-12-31T15:29:33.418Z,101048.94
2022-12-31T15:32:03.162Z,101054.03
2022-12-31T15:34:35.076Z,101055.41
2022-12-31T15:37:26.191Z,101057.50
2022-12-31T15:40:05.825Z,101055.91
2022-12-31T15:42:49.829Z,101047.03
2022-12-31T15:45:27.240Z,101050.47
2022-12-31T15:48:00.381Z,101053.84
2022-12-31T15:50:29.323Z,101054.38
2022-12-31T15:52:58.776Z,101064.03
2022-12-31T15:55:27.236Z,101068.94
2022-12-31T15:57:58.513Z,101070.50
2022-12-31T16:00:25.151Z,101080.78
2022-12-31T16:02:54.755Z,101070.72
2022-12-31T16:05:28.160Z,101073.13
2022-12-31T16:07:57.165Z,101079.13
2022-12-31T16:10:29.422Z,101073.88
2022-12-31T16:12:58.196Z,101081.28
2022-12-31T16:15:31.647Z,101079.47
2022-12-31T16:18:00.598Z,101080.69
2022-12-31T16:20:30.550Z,101079.31
2022-12-31T16:23:00.181Z,101086.66
2022-12-31T16:25:31.240Z,101082.47
2022-12-31T16:27:59.488Z,101084.56
2022-12-31T16:30:31.400Z,101065.72
2022-12-31T16:33:04.351Z,101082.31
2022-12-31T16:35:33.753Z,101093.47
2022-12-31T16:38:10.697Z,101095.41
2022-12-31T16:40:37.638Z,101095.66
2022-12-31T16:43:21.561Z,101096.44
2022-12-31T16:45:49.956Z,101095.31
2022-12-31T16:48:18.275Z,101096.56
2022-12-31T16:50:54.829Z,101093.50
2022-12-31T16:53:26.196Z,101093.38
2022-12-31T16:56:36.611Z,101091.78
2022-12-31T16:59:24.268Z,101086.47
2022-12-31T17:01:52.007Z,101090.78
2022-12-31T17:04:20.978Z,101084.09
2022-12-31T17:06:48.177Z,101086.56
2022-12-31T17:09:21.405Z,101079.13
2022-12-31T17:11:56.706Z,101082.00
2022-12-31T17:14:30.544Z,101088.81
2022-12-31T17:17:23.665Z,101095.91
2022-12-31T17:19:55.920Z,101096.25
2022-12-31T17:22:40.736Z,101099.75
2022-12-31T17:25:28.701Z,101096.28
2022-12-31T17:28:02.793Z,101100.75
2022-12-31T17:30:35.442Z,101101.03
2022-12-31T17:33:24.768Z,101108.09
2022-12-31T17:36:15.348Z,101112.41
2022-12-31T17:38:42.162Z,101109.19
2022-12-31T17:41:08.805Z,101114.19
2022-12-31T17:43:38.151Z,101113.94
2022-12-31T17:46:16.668Z,101126.00
2022-12-31T17:48:46.256Z,101129.16
2022-12-31T17:51:13.105Z,101134.75
2022-12-31T17:53:39.759Z,101135.28
2022-12-31T17:56:10.437Z,101128.47
2022-12-31T17:58:47.499Z,101126.94
2022-12-31T18:01:17.529Z,101116.41
2022-12-31T18:03:44.222Z,101129.81
2022-12-31T18:06:16.553Z,101102.38
2022-12-31T18:08:43.691Z,101124.38
2022-12-31T18:11:19.920Z,101127.78
2022-12-31T18:13:48.608Z,101117.72
2022-12-31T18:16:15.756Z,101117.41
2022-12-31T18:18:42.518Z,101115.84
2022-12-31T18:21:29.124Z,101123.56
2022-12-31T18:26:23.435Z,101106.00
2022-12-31T18:28:50.682Z,101133.16
2022-12-31T18:31:21.378Z,101126.09
2022-12-31T18:33:49.415Z,101136.00
2022-12-31T18:36:18.122Z,101142.47
2022-12-31T18:38:45.388Z,101136.91
2022-12-31T18:41:24.494Z,101151.38
2022-12-31T18:43:51.259Z,101158.69
2022-12-31T18:46:21.439Z,101159.69
2022-12-31T18:48:48.922Z,101155.13
2022-12-31T18:51:19.971Z,101159.03
2022-12-31T18:53:47.539Z,101160.38
2022-12-31T18:56:20.009Z,101159.06
2022-12-31T18:58:47.019Z,101142.41
2022-12-31T19:01:32.392Z,101163.84
2022-12-31T19:04:02.732Z,101164.56
2022-12-31T19:06:29.811Z,101163.81
2022-12-31T19:08:56.810Z,101163.69
2022-12-31T19:11:23.940Z,101159.53
2022-12-31T19:13:50.946Z,101159.28
2022-12-31T19:16:18.065Z,101165.00
2022-12-31T19:18:47.387Z,101162.94
2022-12-31T19:21:17.222Z,101161.91
2022-12-31T19:23:44.527Z,101164.59
2022-12-31T19:26:20.237Z,101174.88
2022-12-31T19:28:48.054Z,101164.97
2022-12-31T19:31:15.158Z,101170.28
2022-12-31T19:33:42.433Z,101161.47
2022-12-31T19:36:20.477Z,101169.44
2022-12-31T19:38:47.445Z,101174.09
2022-12-31T19:41:19.437Z,101178.66
2022-12-31T19:43:47.324Z,101184.97
2022-12-31T19:46:16.421Z,101179.13
2022-12-31T19:48:43.687Z,101176.50
2022-12-31T19:51:15.264Z,101135.28
2022-12-31T19:53:41.955Z,101185.44
2022-12-31T19:56:14.698Z,101188.19
2022-12-31T19:58:41.489Z,101171.44
2022-12-31T20:01:09.444Z,101195.91
2022-12-31T20:03:36.422Z,101189.06
2022-12-31T20:06:09.788Z,101188.66
2022-12-31T20:08:38.514Z,101173.28
2022-12-31T20:11:12.277Z,101194.28
2022-12-31T20:13:39.272Z,101191.78
2022-12-31T20:16:08.097Z,101184.94
2022-12-31T20:18:37.348Z,101193.63
2022-12-31T20:21:04.549Z,101192.94
2022-12-31T20:23:35.098Z,101194.31
2022-12-31T20:26:02.158Z,101194.69
2022-12-31T20:28:29.870Z,101194.91
2022-12-31T20:30:56.764Z,101196.34
2022-12-31T20:33:23.680Z,101184.31
2022-12-31T20:35:51.495Z,101174.81
2022-12-31T20:38:18.127Z,101187.38
2022-12-31T20:40:47.151Z,101185.16
2022-12-31T20:43:14.333Z,101183.81
2022-12-31T20:45:41.811Z,101191.34
2022-12-31T20:48:08.718Z,101197.38
2022-12-31T20:50:35.608Z,101184.78
2022-12-31T20:53:02.628Z,101211.38
2022-12-31T20:55:30.836Z,101198.25
2022-12-31T20:57:57.872Z,101201.66
2022-12-31T21:00:24.622Z,101192.94
2022-12-31T21:02:59.020Z,101199.84
2022-12-31T21:05:31.250Z,101200.81
2022-12-31T21:07:58.030Z,101191.94
2022-12-31T21:10:24.705Z,101196.53
2022-12-31T21:12:54.471Z,101197.88
2022-12-31T21:15:21.849Z,101191.81
2022-12-31T21:17:48.648Z,101198.69
2022-12-31T21:20:15.521Z,101194.88
2022-12-31T21:22:42.155Z,101192.03
2022-12-31T21:25:10.614Z,101193.94
2022-12-31T21:27:37.304Z,101196.66
2022-12-31T21:30:20.444Z,101194.16
2022-12-31T21:32:47.575Z,101196.66
2022-12-31T21:35:42.319Z,101176.94
2022-12-31T21:38:05.528Z,101191.19
2022-12-31T21:40:32.747Z,101190.94
2022-12-31T21:42:59.861Z,101186.88
2022-12-31T21:45:26.643Z,101194.28
2022-12-31T21:48:11.798Z,101191.78
2022-12-31T21:50:38.497Z,101192.25
2022-12-31T21:53:05.164Z,101187.97
2022-12-31T21:55:50.534Z,101200.13
2022-12-31T21:58:26.430Z,101198.47
2022-12-31T22:01:13.268Z,101188.47
2022-12-31T22:03:40.120Z,101197.28
2022-12-31T22:06:12.515Z,101189.16
2022-12-31T22:08:40.927Z,101185.56
2022-12-31T22:11:08.533Z,101215.91
2022-12-31T22:13:36.296Z,101222.22
2022-12-31T22:16:05.802Z,101222.56
2022-12-31T22:18:38.537Z,101208.47
2022-12-31T22:21:19.293Z,101223.03
2022-12-31T22:23:52.235Z,101222.09
2022-12-31T22:26:22.057Z,101221.66
2022-12-31T22:28:48.955Z,101214.50
2022-12-31T22:31:18.865Z,101222.38
2022-12-31T22:33:46.225Z,101221.78
2022-12-31T22:36:15.940Z,101211.13
2022-12-31T22:38:43.329Z,101217.84
2022-12-31T22:41:12.731Z,101214.81
2022-12-31T22:43:43.428Z,101211.34
2022-12-31T22:46:13.540Z,101210.16
2022-12-31T22:48:41.017Z,101216.28
2022-12-31T22:51:08.892Z,101219.75
2022-12-31T22:53:35.928Z,101208.97
2022-12-31T22:56:02.553Z,101222.09
2022-12-31T22:58:29.257Z,101214.22
2022-12-31T23:00:55.967Z,101201.94
2022-12-31T23:03:22.775Z,101192.50
2022-12-31T23:05:51.623Z,101207.06
2022-12-31T23:08:23.133Z,101194.16
2022-12-31T23:11:02.939Z,101204.56
2022-12-31T23:13:51.373Z,101207.66
2022-12-31T23:16:37.909Z,101212.91
2022-12-31T23:19:24.503Z,101202.00
2022-12-31T23:22:09.815Z,101199.41
2022-12-31T23:24:36.946Z,101189.78
2022-12-31T23:27:03.869Z,101199.53
2022-12-31T23:29:30.760Z,101193.22
2022-12-31T23:31:57.619Z,101201.09
2022-12-31T23:34:24.281Z,101201.34
2022-12-31T23:36:50.890Z,101201.81
2022-12-31T23:39:17.638Z,101200.38
2022-12-31T23:41:44.318Z,101205.66
2022-12-31T23:44:12.406Z,101203.03
2022-12-31T23:46:40.229Z,101201.91
2022-12-31T23:49:07.110Z,101214.19
2022-12-31T23:51:33.900Z,101218.91
2022-12-31T23:54:01.001Z,101222.94
2022-12-31T23:56:27.646Z,101225.22
2022-12-31T23:58:58.759Z,101220.91
